Stations météo

réclame
Mon MeteoGroup
Siracusa, Italie (16464): Température de l'air & dewpoint: 05.12.2017 19:00:00 - 11.12.2017 19:00:00 (CET)Siracusa, Italie (16464): Vitesse du vent: 05.12.2017 19:00:00 - 11.12.2017 19:00:00 (CET)Siracusa, Italie (16464): Direction du vent: 05.12.2017 19:00:00 - 11.12.2017 19:00:00 (CET)Siracusa, Italie (16464): reduced air pressure: 05.12.2017 19:00:00 - 11.12.2017 19:00:00 (CET)Siracusa, Italie (16464): Quantités de précipitations: 05.12.2017 19:00:00 - 11.12.2017 19:00:00 (CET)
Date & Time tt [°C] td [°C] ff [km/h] ff [knt] dd ppp [hPa] rr [mm]
11.12.2017 19:00:00 15,0 11,2 9 5 SW 1018,8 0,0
11.12.2017 18:00:00 15,6 11,3 5 3 SW 1018,5 -
11.12.2017 17:00:00 16,8 11,7 15 8 SSW 1017,9 -
11.12.2017 16:00:00 17,5 11,7 21 11 SSW 1017,5 -
11.12.2017 15:00:00 17,7 12,3 28 15 SSW 1017,0 -
11.12.2017 14:00:00 17,6 12,2 24 13 SSW 1017,4 -
11.12.2017 13:00:00 17,1 13,3 18 10 SSW 1018,1 0,0
11.12.2017 12:00:00 17,1 13,0 15 8 SSW 1018,8 -
11.12.2017 11:00:00 15,5 13,1 15 8 SSW 1019,5 -
11.12.2017 10:00:00 13,0 11,4 4 2 SW 1020,1 -
11.12.2017 09:00:00 10,4 8,0 4 2 SE 1019,9 -
11.12.2017 08:00:00 8,4 5,3 8 4 NW 1019,7 -
11.12.2017 07:00:00 7,9 4,4 4 2 NW 1019,5 0,0
11.12.2017 06:00:00 7,9 3,9 2 1 WNW 1019,5 -
11.12.2017 05:00:00 7,6 3,2 4 2 WNW 1019,6 -
11.12.2017 04:00:00 7,1 2,5 5 3 WNW 1020,0 -
11.12.2017 03:00:00 6,9 3,1 4 2 NNW 1020,4 -
11.12.2017 02:00:00 5,5 1,0 4 2 WNW 1020,7 -
11.12.2017 01:00:00 5,6 - - - - 1020,7 0,0
11.12.2017 00:00:00 5,6 - - - - 1021,3 -
10.12.2017 23:00:00 5,7 - - - - 1021,8 -
10.12.2017 22:00:00 6,3 - - - - 1021,6 -
10.12.2017 21:00:00 6,8 - - - - 1021,7 -
10.12.2017 20:00:00 7,4 - - - - 1021,5 -
10.12.2017 19:00:00 9,0 - - - - 1021,4 0,0
10.12.2017 18:00:00 11,9 - - - - 1020,9 -
10.12.2017 17:00:00 13,4 - - - - 1020,5 -
10.12.2017 16:00:00 14,5 - - - - 1020,7 -
10.12.2017 15:00:00 14,7 - - - - 1021,0 -
10.12.2017 14:00:00 14,1 2,2 9 5 NE 1021,4 -
10.12.2017 13:00:00 13,9 2,7 8 4 N 1021,5 0,0
10.12.2017 12:00:00 13,9 2,7 5 3 SW 1022,1 -
10.12.2017 11:00:00 13,8 2,9 4 2 E 1022,6 -
10.12.2017 10:00:00 12,4 4,5 0 0 N 1022,4 -
10.12.2017 09:00:00 9,7 3,4 2 1 WNW 1021,7 -
10.12.2017 08:00:00 6,9 1,3 4 2 W 1021,3 -
10.12.2017 07:00:00 5,9 -0,3 4 2 WNW 1020,9 0,0
10.12.2017 06:00:00 6,8 -0,1 4 2 WSW 1020,2 -
10.12.2017 05:00:00 6,8 -0,5 2 1 W 1019,6 -
10.12.2017 04:00:00 8,3 -0,8 4 2 W 1019,5 -
10.12.2017 03:00:00 8,8 -0,6 2 1 N 1019,4 -
10.12.2017 02:00:00 10,2 -0,1 9 5 NNW 1019,1 -
10.12.2017 01:00:00 10,9 1,3 13 7 W 1018,7 0,0
10.12.2017 00:00:00 8,6 3,0 9 5 WNW 1018,8 -
09.12.2017 23:00:00 8,9 3,5 4 2 NNW 1018,9 -
09.12.2017 22:00:00 10,0 3,7 5 3 W 1018,5 -
09.12.2017 21:00:00 11,7 4,1 8 4 WNW 1018,0 -
09.12.2017 20:00:00 12,2 5,3 13 7 WNW 1017,2 -
09.12.2017 19:00:00 13,2 6,7 5 3 W 1016,6 0,0
09.12.2017 18:00:00 13,9 7,6 9 5 W 1016,1 -
09.12.2017 17:00:00 15,0 8,2 9 5 WSW 1015,7 -
09.12.2017 16:00:00 16,4 7,8 22 12 W 1015,7 -
09.12.2017 15:00:00 18,1 5,9 18 10 W 1015,7 -
09.12.2017 14:00:00 18,6 5,0 24 13 WSW 1015,8 -
09.12.2017 13:00:00 18,4 5,5 28 15 W 1016,3 0,0
09.12.2017 12:00:00 18,4 6,8 24 13 WSW 1016,8 -
09.12.2017 11:00:00 16,8 8,4 16 9 SW 1017,8 -
09.12.2017 10:00:00 16,2 9,8 16 9 SW 1018,4 -
09.12.2017 09:00:00 11,3 7,9 8 4 W 1018,9 -
09.12.2017 08:00:00 8,5 4,7 9 5 WNW 1019,2 -
09.12.2017 07:00:00 8,6 4,7 8 4 NW 1019,6 0,0
09.12.2017 06:00:00 9,6 5,5 5 3 WNW 1020,0 -
09.12.2017 05:00:00 8,8 4,9 8 4 NW 1020,2 -
09.12.2017 04:00:00 8,6 4,4 8 4 WSW 1020,7 -
09.12.2017 03:00:00 8,6 4,2 2 1 NW 1021,4 -
09.12.2017 02:00:00 9,2 4,9 5 3 NW 1022,1 -
09.12.2017 01:00:00 9,0 4,0 8 4 WNW 1022,5 0,0
09.12.2017 00:00:00 8,4 1,9 4 2 WSW 1023,4 -
08.12.2017 23:00:00 9,1 2,6 5 3 W 1024,1 -
08.12.2017 22:00:00 8,1 0,0 5 3 W 1024,0 -
08.12.2017 21:00:00 9,2 0,5 2 1 WSW 1024,4 -
08.12.2017 20:00:00 9,5 1,3 5 3 WNW 1024,2 -
08.12.2017 19:00:00 10,4 1,9 5 3 W 1024,3 0,0
08.12.2017 18:00:00 12,0 4,9 8 4 W 1024,3 -
08.12.2017 17:00:00 15,6 7,0 0 0 N 1024,1 -
08.12.2017 16:00:00 16,6 7,7 9 5 S 1024,2 -
08.12.2017 15:00:00 15,8 6,7 5 3 E 1024,6 -
08.12.2017 14:00:00 16,8 5,3 2 1 ESE 1025,2 -
08.12.2017 13:00:00 16,1 5,6 8 4 SE 1026,2 0,0
08.12.2017 12:00:00 16,0 6,1 4 2 SE 1027,1 -
08.12.2017 11:00:00 14,7 - 4 2 S 1027,9 -
08.12.2017 10:00:00 11,5 6,6 - - - 1028,7 -
08.12.2017 09:00:00 8,0 3,6 - - - 1028,9 -
08.12.2017 08:00:00 4,8 0,1 - - - 1029,1 -
08.12.2017 07:00:00 4,8 - 4 2 WNW 1028,9 0,0
08.12.2017 06:00:00 4,9 0,2 - - - 1028,9 -
08.12.2017 05:00:00 5,2 - - - - 1028,9 -
08.12.2017 04:00:00 5,5 0,8 5 3 WNW 1029,3 -
08.12.2017 03:00:00 5,6 0,9 5 3 NW 1029,6 -
08.12.2017 02:00:00 6,0 1,3 4 2 NW 1029,9 -
08.12.2017 01:00:00 6,0 1,3 4 2 WNW 1030,3 0,0
08.12.2017 00:00:00 6,4 1,5 5 3 WNW 1031,0 -
07.12.2017 23:00:00 7,0 2,2 4 2 WNW 1031,3 -
07.12.2017 22:00:00 7,3 2,5 0 0 N 1031,5 -
07.12.2017 21:00:00 7,9 2,9 4 2 WNW 1031,6 -
07.12.2017 20:00:00 8,6 2,7 5 3 WNW 1031,7 -
07.12.2017 19:00:00 10,7 3,6 8 4 WNW 1031,8 0,0
07.12.2017 18:00:00 12,6 4,5 5 3 WNW 1031,7 -
07.12.2017 17:00:00 15,1 5,2 2 1 WNW 1031,5 -
07.12.2017 16:00:00 15,7 5,5 5 3 NE 1031,4 -
07.12.2017 15:00:00 16,0 5,2 8 4 NE 1031,3 -
07.12.2017 14:00:00 16,5 3,5 5 3 NNE 1031,6 -
07.12.2017 13:00:00 16,3 3,6 8 4 N 1032,3 0,0
07.12.2017 12:00:00 15,9 3,2 8 4 N 1033,0 -
07.12.2017 11:00:00 15,6 3,9 8 4 N 1033,4 -
07.12.2017 10:00:00 14,9 6,6 2 1 WSW 1033,9 -
07.12.2017 09:00:00 9,3 3,4 5 3 WNW 1033,6 -
07.12.2017 08:00:00 5,5 0,0 5 3 WNW 1033,4 -
07.12.2017 07:00:00 4,7 -1,2 4 2 WNW 1033,2 0,0
07.12.2017 06:00:00 5,1 -0,8 8 4 WNW 1033,0 -
07.12.2017 05:00:00 5,0 -0,5 5 3 WNW 1032,9 -
07.12.2017 04:00:00 4,8 -0,3 5 3 WNW 1033,4 -
07.12.2017 03:00:00 4,7 -0,2 8 4 WNW 1033,8 -
07.12.2017 02:00:00 4,8 -0,3 5 3 WNW 1033,9 -
07.12.2017 01:00:00 5,3 0,2 4 2 WNW 1034,0 0,0
07.12.2017 00:00:00 5,5 0,0 5 3 WNW 1034,2 -
06.12.2017 23:00:00 6,2 0,5 4 2 WNW 1034,4 -
06.12.2017 22:00:00 6,5 0,3 4 2 WNW 1034,4 -
06.12.2017 21:00:00 7,3 0,9 5 3 WNW 1034,5 -
06.12.2017 20:00:00 7,9 0,8 4 2 NW 1034,4 -
06.12.2017 19:00:00 9,4 0,7 5 3 WNW 1034,2 0,0
06.12.2017 18:00:00 11,7 1,5 4 2 WNW 1034,0 -
06.12.2017 17:00:00 14,5 2,0 5 3 N 1033,9 -
06.12.2017 16:00:00 15,3 2,0 8 4 N 1034,1 -
06.12.2017 15:00:00 15,3 2,4 11 6 N 1034,2 -
06.12.2017 14:00:00 15,3 2,7 13 7 N 1034,2 -
06.12.2017 13:00:00 15,2 2,3 13 7 N 1034,7 0,0
06.12.2017 12:00:00 14,7 2,2 9 5 N 1035,1 -
06.12.2017 11:00:00 14,5 2,3 9 5 N 1035,4 -
06.12.2017 10:00:00 13,9 2,7 9 5 N 1035,7 -
06.12.2017 09:00:00 12,5 3,9 5 3 NNW 1035,3 -
06.12.2017 08:00:00 11,1 2,6 11 6 NNW 1035,0 -
06.12.2017 07:00:00 10,2 0,9 9 5 N 1034,6 0,0
06.12.2017 06:00:00 9,7 1,0 9 5 N 1034,3 -
06.12.2017 05:00:00 9,7 1,0 9 5 N 1034,0 -
06.12.2017 04:00:00 7,9 1,9 8 4 N 1033,9 -
06.12.2017 03:00:00 8,2 1,9 5 3 NNW 1033,9 -
06.12.2017 02:00:00 7,1 0,7 5 3 W 1033,7 -
06.12.2017 01:00:00 6,8 0,4 8 4 NW 1033,4 0,0
06.12.2017 00:00:00 7,6 0,7 5 3 WNW 1033,7 -
05.12.2017 23:00:00 8,7 2,2 2 1 W 1033,6 -
05.12.2017 22:00:00 9,4 1,7 5 3 NW 1033,3 -
05.12.2017 21:00:00 12,5 3,6 8 4 NNW 1033,1 -
05.12.2017 20:00:00 13,2 5,0 4 2 NNW 1032,8 -
05.12.2017 19:00:00 14,1 4,6 8 4 N 1032,4 0,0

tt = Température de l'air
td = dewpoint
ff = Vitesse du vent
dd = Direction du vent
ppp = reduced air pressure
rr = Quantités de précipitations

stations d'obs. à proximité